createdAt,value
2022-10-31T00:00:10.172Z,89.14
2022-10-31T00:03:02.093Z,88.93
2022-10-31T00:05:31.904Z,88.93
2022-10-31T00:08:00.892Z,89.30
2022-10-31T00:10:45.431Z,89.39
2022-10-31T00:13:15.435Z,89.34
2022-10-31T00:15:58.278Z,89.45
2022-10-31T00:18:27.097Z,89.17
2022-10-31T00:21:04.481Z,89.26
2022-10-31T00:23:33.303Z,88.97
2022-10-31T00:26:06.233Z,88.71
2022-10-31T00:28:35.491Z,88.84
2022-10-31T00:31:19.042Z,88.90
2022-10-31T00:33:48.667Z,88.91
2022-10-31T00:36:21.369Z,88.74
2022-10-31T00:38:50.151Z,89.05
2022-10-31T00:41:19.624Z,88.99
2022-10-31T00:43:49.789Z,88.91
2022-10-31T00:46:18.847Z,88.78
2022-10-31T00:49:01.647Z,89.10
2022-10-31T00:51:30.642Z,89.46
2022-10-31T00:54:14.480Z,89.57
2022-10-31T00:56:44.011Z,89.75
2022-10-31T00:59:13.493Z,89.49
2022-10-31T01:01:43.999Z,89.33
2022-10-31T01:04:13.448Z,89.39
2022-10-31T01:06:42.663Z,89.28
2022-10-31T01:09:12.061Z,89.46
2022-10-31T01:11:54.948Z,89.36
2022-10-31T01:14:26.045Z,89.58
2022-10-31T01:16:55.520Z,89.36
2022-10-31T01:19:25.017Z,89.35
2022-10-31T01:21:58.431Z,89.39
2022-10-31T01:24:32.033Z,89.32
2022-10-31T01:27:14.832Z,89.50
2022-10-31T01:29:44.114Z,89.32
2022-10-31T01:32:13.122Z,89.35
2022-10-31T01:34:42.376Z,89.18
2022-10-31T01:37:25.150Z,89.17
2022-10-31T01:39:54.018Z,89.42
2022-10-31T01:42:24.770Z,89.64
2022-10-31T01:45:01.026Z,89.80
2022-10-31T01:47:47.571Z,89.60
2022-10-31T01:50:38.173Z,89.84
2022-10-31T01:53:25.938Z,89.44
2022-10-31T01:55:56.004Z,89.82
2022-10-31T01:58:29.390Z,89.76
2022-10-31T02:01:04.873Z,89.72
2022-10-31T02:03:36.949Z,89.85
2022-10-31T02:06:13.053Z,89.95
2022-10-31T02:08:44.289Z,89.83
2022-10-31T02:11:13.889Z,90.24
2022-10-31T02:13:44.760Z,90.21
2022-10-31T02:16:27.475Z,90.12
2022-10-31T02:19:13.866Z,90.12
2022-10-31T02:22:05.656Z,89.84
2022-10-31T02:24:44.866Z,89.75
2022-10-31T02:27:32.421Z,89.88
2022-10-31T02:30:24.884Z,89.54
2022-10-31T02:33:26.549Z,89.62
2022-10-31T02:36:33.453Z,89.69
2022-10-31T02:39:38.853Z,89.47
2022-10-31T02:42:35.012Z,89.77
2022-10-31T02:45:49.728Z,90.20
2022-10-31T02:48:38.362Z,89.96
2022-10-31T02:51:08.996Z,90.22
2022-10-31T02:53:51.453Z,90.12
2022-10-31T02:56:21.291Z,90.44
2022-10-31T02:58:55.419Z,90.29
2022-10-31T03:02:03.453Z,90.46
2022-10-31T03:04:39.391Z,90.45
2022-10-31T03:07:57.979Z,90.17
2022-10-31T03:10:57.052Z,90.12
2022-10-31T03:13:50.598Z,90.21
2022-10-31T03:16:29.575Z,90.72
2022-10-31T03:19:17.212Z,90.54
2022-10-31T03:21:56.857Z,90.54
2022-10-31T03:24:41.203Z,90.71
2022-10-31T03:27:15.182Z,90.95
2022-10-31T03:29:46.942Z,90.67
2022-10-31T03:32:32.871Z,90.48
2022-10-31T03:35:05.894Z,90.63
2022-10-31T03:37:36.999Z,90.61
2022-10-31T03:40:22.551Z,90.44
2022-10-31T03:43:15.204Z,90.65
2022-10-31T03:45:49.203Z,90.75
2022-10-31T03:48:21.529Z,90.61
2022-10-31T03:51:12.354Z,90.74
2022-10-31T03:53:56.427Z,90.98
2022-10-31T03:56:35.202Z,91.13
2022-10-31T03:59:15.792Z,91.44
2022-10-31T04:01:51.276Z,91.32
2022-10-31T04:04:22.104Z,91.17
2022-10-31T04:06:54.149Z,91.41
2022-10-31T04:09:24.431Z,91.53
2022-10-31T04:12:11.472Z,91.51
2022-10-31T04:15:00.640Z,91.77
2022-10-31T04:17:47.645Z,91.66
2022-10-31T04:20:19.234Z,91.66
2022-10-31T04:23:03.376Z,91.64
2022-10-31T04:25:47.408Z,91.77
2022-10-31T04:28:16.111Z,91.73
2022-10-31T04:30:59.090Z,91.66
2022-10-31T04:33:41.555Z,91.80
2022-10-31T04:36:23.901Z,91.80
2022-10-31T04:38:52.895Z,91.53
2022-10-31T04:41:35.502Z,91.72
2022-10-31T04:44:06.784Z,91.48
2022-10-31T04:46:35.770Z,91.57
2022-10-31T04:49:18.629Z,91.58
2022-10-31T04:52:01.307Z,91.83
2022-10-31T04:54:30.950Z,91.85
2022-10-31T04:57:22.723Z,91.47
2022-10-31T04:59:51.402Z,91.76
2022-10-31T05:02:33.850Z,91.82
2022-10-31T05:05:04.830Z,91.74
2022-10-31T05:07:41.289Z,91.57
2022-10-31T05:10:12.905Z,91.67
2022-10-31T05:12:49.887Z,91.60
2022-10-31T05:15:38.269Z,91.91
2022-10-31T05:18:26.387Z,92.05
2022-10-31T05:21:21.923Z,91.57
2022-10-31T05:23:54.474Z,92.07
2022-10-31T05:26:25.098Z,91.84
2022-10-31T05:28:56.042Z,91.72
2022-10-31T05:31:25.519Z,91.96
2022-10-31T05:33:55.480Z,91.91
2022-10-31T05:36:42.858Z,91.44
2022-10-31T05:39:18.277Z,91.91
2022-10-31T05:41:53.583Z,91.82
2022-10-31T05:44:28.446Z,91.75
2022-10-31T05:47:15.999Z,91.83
2022-10-31T05:50:05.162Z,91.69
2022-10-31T05:52:48.649Z,91.89
2022-10-31T05:55:28.224Z,91.91
2022-10-31T05:58:17.356Z,91.63
2022-10-31T06:01:02.736Z,91.51
2022-10-31T06:03:31.495Z,91.31
2022-10-31T06:06:02.643Z,91.44
2022-10-31T06:08:38.148Z,91.10
2022-10-31T06:11:09.388Z,91.38
2022-10-31T06:13:57.475Z,91.35
2022-10-31T06:16:49.240Z,91.52
2022-10-31T06:19:37.296Z,91.46
2022-10-31T06:22:21.247Z,91.38
2022-10-31T06:24:50.155Z,91.48
2022-10-31T06:27:31.760Z,91.32
2022-10-31T06:30:04.909Z,91.38
2022-10-31T06:32:36.987Z,91.35
2022-10-31T06:35:07.128Z,91.51
2022-10-31T06:37:37.189Z,91.08
2022-10-31T06:40:17.090Z,91.28
2022-10-31T06:43:08.312Z,91.27
2022-10-31T06:45:37.102Z,91.81
2022-10-31T06:48:24.852Z,91.39
2022-10-31T06:51:13.771Z,91.53
2022-10-31T06:53:42.793Z,91.67
2022-10-31T06:56:13.193Z,91.26
2022-10-31T06:58:47.363Z,91.89
2022-10-31T07:01:17.427Z,91.48
2022-10-31T07:03:46.444Z,91.59
2022-10-31T07:06:15.955Z,91.30
2022-10-31T07:08:44.722Z,91.49
2022-10-31T07:11:13.504Z,91.66
2022-10-31T07:13:42.491Z,91.94
2022-10-31T07:16:14.042Z,91.57
2022-10-31T07:18:43.427Z,91.71
2022-10-31T07:21:13.547Z,91.65
2022-10-31T07:23:42.554Z,91.88
2022-10-31T07:26:31.511Z,91.88
2022-10-31T07:29:00.797Z,91.86
2022-10-31T07:31:30.338Z,91.76
2022-10-31T07:34:03.636Z,91.76
2022-10-31T07:37:04.935Z,91.96
2022-10-31T07:39:33.825Z,91.84
2022-10-31T07:42:04.168Z,92.02
2022-10-31T07:44:33.369Z,91.71
2022-10-31T07:47:02.247Z,92.02
2022-10-31T07:49:30.915Z,92.08
2022-10-31T07:52:12.535Z,91.71
2022-10-31T07:55:00.484Z,92.07
2022-10-31T07:57:34.232Z,92.16
2022-10-31T08:00:09.474Z,92.00
2022-10-31T08:02:44.007Z,92.17
2022-10-31T08:05:32.677Z,92.27
2022-10-31T08:08:20.645Z,92.25
2022-10-31T08:10:51.194Z,92.29
2022-10-31T08:13:34.121Z,92.23
2022-10-31T08:16:05.207Z,92.20
2022-10-31T08:18:38.781Z,92.23
2022-10-31T08:21:09.668Z,92.28
2022-10-31T08:23:38.465Z,92.11
2022-10-31T08:26:07.500Z,92.05
2022-10-31T08:28:36.395Z,92.05
2022-10-31T08:31:06.146Z,91.94
2022-10-31T08:33:47.568Z,92.09
2022-10-31T08:36:20.832Z,91.87
2022-10-31T08:39:02.443Z,91.79
2022-10-31T08:41:32.469Z,91.87
2022-10-31T08:44:02.517Z,91.93
2022-10-31T08:46:31.428Z,91.77
2022-10-31T08:49:01.010Z,91.71
2022-10-31T08:51:31.282Z,91.73
2022-10-31T08:54:13.623Z,91.36
2022-10-31T08:57:03.166Z,91.30
2022-10-31T08:59:44.472Z,91.14
2022-10-31T09:02:27.747Z,90.84
2022-10-31T09:05:01.383Z,90.69
2022-10-31T09:07:30.198Z,91.01
2022-10-31T09:10:01.151Z,91.01
2022-10-31T09:12:33.243Z,90.83
2022-10-31T09:15:37.445Z,90.80
2022-10-31T09:18:22.858Z,90.64
2022-10-31T09:21:02.740Z,90.63
2022-10-31T09:23:33.298Z,90.72
2022-10-31T09:26:03.172Z,90.45
2022-10-31T09:28:38.831Z,90.31
2022-10-31T09:31:11.556Z,90.41
2022-10-31T09:34:08.191Z,90.59
2022-10-31T09:36:40.535Z,90.37
2022-10-31T09:39:12.355Z,90.35
2022-10-31T09:42:03.057Z,90.15
2022-10-31T09:44:52.711Z,90.05
2022-10-31T09:47:53.028Z,89.69
2022-10-31T09:50:55.594Z,89.67
2022-10-31T09:54:14.618Z,89.48
2022-10-31T09:56:46.479Z,89.73
2022-10-31T09:59:44.414Z,89.38
2022-10-31T10:02:19.572Z,89.47
2022-10-31T10:05:02.433Z,89.41
2022-10-31T10:08:01.417Z,89.24
2022-10-31T10:11:27.556Z,89.33
2022-10-31T10:14:20.617Z,89.24
2022-10-31T10:17:18.524Z,89.13
2022-10-31T10:20:19.708Z,89.11
2022-10-31T10:23:46.362Z,88.79
2022-10-31T10:26:27.732Z,88.74
2022-10-31T10:29:24.703Z,88.84
2022-10-31T10:31:56.855Z,88.63
2022-10-31T10:34:32.370Z,88.49
2022-10-31T10:37:28.497Z,88.40
2022-10-31T10:40:10.818Z,87.95
2022-10-31T10:42:59.731Z,88.10
2022-10-31T10:45:49.513Z,88.06
2022-10-31T10:48:33.467Z,88.10
2022-10-31T10:51:04.613Z,87.88
2022-10-31T10:54:10.290Z,87.95
2022-10-31T10:57:02.485Z,87.70
2022-10-31T10:59:32.287Z,87.64
2022-10-31T11:02:02.220Z,87.57
2022-10-31T11:04:36.743Z,87.30
2022-10-31T11:07:08.988Z,87.07
2022-10-31T11:09:38.835Z,87.23
2022-10-31T11:12:32.001Z,86.96
2022-10-31T11:15:08.289Z,86.78
2022-10-31T11:17:43.554Z,86.51
2022-10-31T11:20:18.881Z,86.37
2022-10-31T11:22:51.010Z,86.21
2022-10-31T11:25:20.708Z,86.19
2022-10-31T11:28:07.121Z,86.05
2022-10-31T11:30:58.843Z,85.93
2022-10-31T11:33:33.691Z,85.70
2022-10-31T11:36:16.559Z,85.61
2022-10-31T11:38:46.292Z,85.65
2022-10-31T11:41:20.126Z,85.77
2022-10-31T11:43:57.991Z,85.65
2022-10-31T11:46:37.264Z,85.53
2022-10-31T11:49:12.771Z,85.45
2022-10-31T11:51:43.485Z,85.10
2022-10-31T11:54:35.635Z,85.33
2022-10-31T11:57:04.846Z,85.48
2022-10-31T11:59:56.961Z,85.50
2022-10-31T12:02:27.096Z,85.50
2022-10-31T12:05:09.720Z,85.41
2022-10-31T12:07:38.770Z,85.38
2022-10-31T12:10:18.840Z,85.08
2022-10-31T12:12:56.799Z,85.08
2022-10-31T12:15:33.317Z,84.71
2022-10-31T12:18:23.244Z,84.78
2022-10-31T12:21:12.799Z,84.68
2022-10-31T12:24:19.745Z,84.47
2022-10-31T12:26:59.581Z,84.32
2022-10-31T12:30:08.415Z,84.48
2022-10-31T12:32:53.491Z,84.04
2022-10-31T12:35:55.755Z,83.86
2022-10-31T12:38:46.337Z,84.39
2022-10-31T12:41:36.808Z,84.39
2022-10-31T12:44:49.449Z,84.32
2022-10-31T12:47:39.567Z,84.06
2022-10-31T12:50:27.534Z,83.74
2022-10-31T12:53:13.342Z,83.92
2022-10-31T12:56:08.186Z,84.10
2022-10-31T12:59:12.972Z,84.41
2022-10-31T13:02:00.109Z,84.23
2022-10-31T13:04:56.677Z,84.11
2022-10-31T13:07:49.454Z,84.00
2022-10-31T13:10:49.458Z,84.02
2022-10-31T13:13:29.491Z,84.03
2022-10-31T13:16:07.414Z,83.90
2022-10-31T13:19:11.816Z,83.63
2022-10-31T13:22:22.441Z,83.45
2022-10-31T13:25:03.621Z,83.54
2022-10-31T13:27:56.170Z,83.77
2022-10-31T13:30:41.261Z,83.71
2022-10-31T13:33:17.323Z,83.89
2022-10-31T13:35:54.805Z,84.09
2022-10-31T13:38:43.046Z,84.15
2022-10-31T13:41:35.550Z,84.18
2022-10-31T13:44:31.329Z,84.11
2022-10-31T13:47:04.689Z,84.11
2022-10-31T13:49:33.821Z,84.02
2022-10-31T13:52:16.239Z,84.19
2022-10-31T13:54:52.936Z,84.14
2022-10-31T13:57:31.655Z,84.06
2022-10-31T14:00:22.843Z,83.95
2022-10-31T14:02:58.964Z,84.26
2022-10-31T14:05:32.941Z,84.24
2022-10-31T14:08:07.792Z,84.24
2022-10-31T14:10:49.875Z,84.14
2022-10-31T14:13:38.549Z,84.41
2022-10-31T14:16:20.173Z,84.34
2022-10-31T14:18:53.968Z,84.40
2022-10-31T14:21:26.265Z,84.36
2022-10-31T14:24:00.834Z,84.45
2022-10-31T14:26:29.850Z,84.48
2022-10-31T14:29:25.977Z,84.51
2022-10-31T14:32:13.975Z,84.52
2022-10-31T14:34:52.738Z,84.59
2022-10-31T14:37:32.859Z,84.69
2022-10-31T14:43:36.334Z,84.85
2022-10-31T14:46:43.406Z,84.96
2022-10-31T14:49:17.995Z,84.76
2022-10-31T14:51:50.442Z,84.90
2022-10-31T14:54:43.427Z,84.93
2022-10-31T14:57:39.829Z,85.17
2022-10-31T15:00:20.248Z,85.09
2022-10-31T15:03:11.631Z,85.05
2022-10-31T15:05:56.437Z,85.36
2022-10-31T15:08:34.806Z,85.42
2022-10-31T15:11:15.153Z,85.45
2022-10-31T15:13:45.121Z,85.29
2022-10-31T15:16:17.490Z,85.30
2022-10-31T15:18:51.262Z,85.47
2022-10-31T15:21:22.950Z,85.57
2022-10-31T15:23:57.930Z,85.60
2022-10-31T15:26:36.883Z,85.74
2022-10-31T15:29:14.367Z,85.75
2022-10-31T15:32:22.692Z,85.77
2022-10-31T15:34:53.842Z,85.92
2022-10-31T15:37:26.144Z,85.92
2022-10-31T15:39:55.402Z,86.01
2022-10-31T15:42:42.451Z,85.88
2022-10-31T15:45:12.725Z,85.94
2022-10-31T15:47:50.847Z,85.97
2022-10-31T15:50:29.466Z,85.94
2022-10-31T15:53:20.673Z,86.15
2022-10-31T15:55:54.423Z,85.84
2022-10-31T15:58:24.416Z,86.01
2022-10-31T16:01:20.250Z,85.93
2022-10-31T16:04:14.138Z,85.97
2022-10-31T16:06:43.448Z,86.26
2022-10-31T16:09:25.844Z,86.23
2022-10-31T16:11:57.029Z,86.19
2022-10-31T16:14:34.508Z,86.16
2022-10-31T16:17:03.707Z,86.08
2022-10-31T16:19:37.829Z,86.26
2022-10-31T16:22:13.283Z,86.19
2022-10-31T16:25:18.330Z,86.26
2022-10-31T16:27:54.595Z,86.16
2022-10-31T16:30:45.399Z,86.30
2022-10-31T16:33:28.684Z,86.43
2022-10-31T16:36:09.462Z,86.42
2022-10-31T16:38:49.079Z,86.49
2022-10-31T16:41:18.083Z,86.41
2022-10-31T16:44:03.508Z,86.42
2022-10-31T16:46:32.932Z,86.46
2022-10-31T16:49:01.781Z,86.55
2022-10-31T16:51:30.704Z,86.32
2022-10-31T16:54:01.606Z,86.38
2022-10-31T16:56:37.744Z,86.67
2022-10-31T16:59:16.151Z,86.68
2022-10-31T17:01:50.051Z,86.68
2022-10-31T17:04:19.907Z,86.61
2022-10-31T17:06:50.153Z,86.63
2022-10-31T17:09:19.215Z,86.69
2022-10-31T17:11:53.346Z,86.62
2022-10-31T17:14:22.929Z,86.85
2022-10-31T17:16:52.449Z,86.79
2022-10-31T17:19:21.171Z,86.85
2022-10-31T17:21:50.330Z,86.79
2022-10-31T17:24:19.164Z,86.95
2022-10-31T17:26:51.057Z,86.95
2022-10-31T17:29:20.026Z,86.99
2022-10-31T17:31:50.053Z,87.00
2022-10-31T17:34:19.725Z,87.05
2022-10-31T17:40:26.224Z,86.92
2022-10-31T17:42:57.440Z,87.18
2022-10-31T17:45:27.742Z,87.13
2022-10-31T17:47:57.130Z,87.19
2022-10-31T17:50:27.540Z,87.22
2022-10-31T17:52:59.796Z,87.21
2022-10-31T17:55:32.930Z,87.40
2022-10-31T17:58:12.429Z,87.32
2022-10-31T18:00:44.706Z,87.41
2022-10-31T18:03:16.341Z,87.30
2022-10-31T18:06:01.014Z,87.31
2022-10-31T18:08:32.248Z,87.43
2022-10-31T18:11:21.919Z,87.55
2022-10-31T18:13:59.670Z,87.52
2022-10-31T18:16:28.541Z,87.62
2022-10-31T18:19:02.557Z,87.46
2022-10-31T18:21:47.982Z,87.54
2022-10-31T18:24:31.488Z,87.62
2022-10-31T18:27:00.703Z,87.67
2022-10-31T18:29:29.408Z,87.67
2022-10-31T18:31:58.436Z,87.63
2022-10-31T18:34:27.074Z,87.73
2022-10-31T18:36:56.156Z,87.76
2022-10-31T18:39:25.319Z,87.72
2022-10-31T18:41:55.458Z,87.81
2022-10-31T18:44:24.943Z,87.86
2022-10-31T18:46:54.478Z,87.88
2022-10-31T18:49:24.349Z,87.90
2022-10-31T18:51:53.662Z,88.01
2022-10-31T18:54:22.241Z,88.01
2022-10-31T18:56:50.787Z,87.95
2022-10-31T18:59:19.409Z,87.93
2022-10-31T19:01:48.072Z,88.02
2022-10-31T19:04:17.033Z,88.08
2022-10-31T19:06:47.529Z,87.87
2022-10-31T19:09:16.773Z,88.01
2022-10-31T19:11:45.905Z,88.07
2022-10-31T19:14:15.323Z,88.03
2022-10-31T19:16:44.440Z,88.11
2022-10-31T19:19:13.480Z,88.20
2022-10-31T19:21:42.058Z,88.16
2022-10-31T19:24:11.757Z,88.19
2022-10-31T19:26:40.343Z,88.23
2022-10-31T19:29:10.062Z,88.32
2022-10-31T19:31:39.298Z,88.33
2022-10-31T19:34:07.741Z,88.17
2022-10-31T19:36:36.711Z,88.22
2022-10-31T19:39:05.585Z,88.26
2022-10-31T19:41:34.273Z,88.25
2022-10-31T19:44:03.366Z,88.36
2022-10-31T19:49:21.530Z,88.41
2022-10-31T19:51:51.385Z,88.40
2022-10-31T19:54:20.131Z,88.36
2022-10-31T19:56:49.060Z,88.43
2022-10-31T19:59:17.494Z,88.55
2022-10-31T20:02:00.933Z,88.46
2022-10-31T20:04:30.134Z,88.51
2022-10-31T20:06:59.528Z,88.53
2022-10-31T20:09:28.562Z,88.50
2022-10-31T20:11:57.103Z,88.55
2022-10-31T20:14:25.678Z,88.48
2022-10-31T20:16:54.704Z,88.25
2022-10-31T20:19:24.440Z,88.40
2022-10-31T20:22:10.541Z,88.56
2022-10-31T20:24:42.256Z,88.59
2022-10-31T20:27:10.766Z,88.60
2022-10-31T20:29:39.633Z,88.59
2022-10-31T20:32:08.236Z,88.81
2022-10-31T20:34:36.626Z,88.71
2022-10-31T20:37:05.309Z,88.76
2022-10-31T20:39:36.938Z,88.66
2022-10-31T20:42:06.416Z,88.67
2022-10-31T20:44:35.022Z,88.78
2022-10-31T20:47:04.504Z,88.82
2022-10-31T20:49:32.773Z,88.81
2022-10-31T20:52:01.623Z,88.58
2022-10-31T20:54:30.092Z,88.83
2022-10-31T20:56:58.532Z,88.69
2022-10-31T20:59:27.070Z,88.74
2022-10-31T21:01:55.729Z,88.80
2022-10-31T21:04:24.261Z,89.02
2022-10-31T21:06:52.721Z,88.84
2022-10-31T21:09:21.253Z,89.13
2022-10-31T21:11:50.674Z,89.17
2022-10-31T21:14:19.571Z,89.24
2022-10-31T21:16:55.030Z,89.32
2022-10-31T21:19:24.679Z,89.22
2022-10-31T21:22:07.460Z,89.11
2022-10-31T21:24:49.694Z,89.40
2022-10-31T21:27:18.680Z,89.28
2022-10-31T21:29:47.962Z,89.35
2022-10-31T21:32:30.795Z,89.28
2022-10-31T21:34:59.595Z,89.39
2022-10-31T21:37:42.305Z,89.43
2022-10-31T21:40:11.790Z,89.46
2022-10-31T21:42:41.115Z,89.50
2022-10-31T21:45:10.620Z,89.54
2022-10-31T21:47:39.723Z,89.84
2022-10-31T21:50:08.969Z,89.86
2022-10-31T21:52:37.763Z,89.92
2022-10-31T21:55:06.917Z,90.00
2022-10-31T21:57:36.761Z,89.82
2022-10-31T22:00:09.445Z,90.01
2022-10-31T22:02:38.982Z,89.99
2022-10-31T22:05:08.902Z,89.73
2022-10-31T22:07:38.004Z,89.78
2022-10-31T22:10:07.012Z,89.89
2022-10-31T22:12:36.372Z,90.12
2022-10-31T22:15:08.783Z,90.20
2022-10-31T22:17:40.471Z,89.99
2022-10-31T22:20:24.776Z,90.05
2022-10-31T22:23:08.026Z,89.92
2022-10-31T22:25:50.290Z,90.32
2022-10-31T22:28:34.218Z,90.14
2022-10-31T22:31:07.221Z,90.06
2022-10-31T22:33:39.942Z,90.00
2022-10-31T22:36:11.216Z,90.18
2022-10-31T22:41:26.770Z,90.17
2022-10-31T22:43:57.402Z,89.92
2022-10-31T22:46:29.377Z,89.96
2022-10-31T22:49:15.383Z,90.21
2022-10-31T22:51:45.546Z,90.35
2022-10-31T22:54:17.997Z,90.23
2022-10-31T22:56:47.465Z,90.18
2022-10-31T22:59:17.616Z,90.27
2022-10-31T23:01:47.184Z,90.26
2022-10-31T23:04:17.249Z,90.34
2022-10-31T23:06:46.301Z,89.85
2022-10-31T23:09:16.973Z,89.76
2022-10-31T23:11:45.891Z,89.95
2022-10-31T23:14:21.061Z,90.14
2022-10-31T23:16:53.326Z,90.09
2022-10-31T23:19:26.645Z,90.32
2022-10-31T23:22:02.688Z,90.28
2022-10-31T23:24:46.386Z,90.38
2022-10-31T23:27:21.510Z,90.36
2022-10-31T23:29:55.700Z,90.35
2022-10-31T23:32:38.825Z,90.30
2022-10-31T23:35:10.342Z,90.37
2022-10-31T23:37:40.051Z,90.42
2022-10-31T23:40:09.512Z,90.68
2022-10-31T23:42:38.917Z,90.44
2022-10-31T23:45:08.982Z,90.82
2022-10-31T23:47:42.416Z,90.45
2022-10-31T23:50:12.595Z,90.49
2022-10-31T23:52:41.649Z,90.55
2022-10-31T23:55:10.699Z,90.53
2022-10-31T23:57:39.775Z,90.62
